CheckWX is a tool to help pilots better visualize weather data.  It is not intended as a substitute for an official pre-flight weather briefing.

05:54:56 UTC

74V METAR
Roosevelt Municipal Airport
Roosevelt, Utah, USA
Current

20 mins ago

K74V 200535Z AUTO 29006KT 10SM CLR M15/M18 A2984 RMK AO2
Observed
Feb-20 @ 05:35 UTC
Wind
  • 290° at 6 KTS
Visibility
16,093 meters
Flight Rules
VFR
Cloud Levels
  • Clear skies
Temperature
-15°C / 5°F
Dewpoint
-18°C / -0°F
Humidity
78%
Altimeter
29.84" Hg
Pressure
1010.52 hPa
Previous

40 mins ago

K74V 200515Z AUTO 28004KT 10SM CLR M15/M18 A2983 RMK AO2
Observed
Feb-20 @ 05:15 UTC
Wind
  • 280° at 4 KTS
Visibility
16,093 meters
Flight Rules
VFR
Cloud Levels
  • Clear skies
Temperature
-15°C / 5°F
Dewpoint
-18°C / -0°F
Humidity
78%
Altimeter
29.83" Hg
Pressure
1010.12 hPa
Previous

60 mins ago

K74V 200455Z AUTO 33003KT 10SM CLR M15/M18 A2984 RMK AO2
Observed
Feb-20 @ 04:55 UTC
Wind
  • 330° at 3 KTS
Visibility
16,093 meters
Flight Rules
VFR
Cloud Levels
  • Clear skies
Temperature
-15°C / 5°F
Dewpoint
-18°C / -0°F
Humidity
78%
Altimeter
29.84" Hg
Pressure
1010.52 hPa